Decoded Metar for USRR (SURGUT in RUSSIA) (IATA:SGC) | Meteo·Mobile Aviation Weather
aviador You're here:

USRR Decoded Metar

SURGUT in RUSSIA
Report Time2019-02-17 05:00:00
UTC Time2019-02-17 05:39:19
Flight Rules mvfr MVFR
Wind160° at 6 kt
W.Decomp.*RWY 07: 1.7 kt HW 5.8 kt RCW
W.Rank160° ranks 20
Current wind is below 160° avg. (7.1)
Visibility5000 m
Phenomena:Light Snow
Clouds:Scattered 013 Hf
Expected CloudBase > 400 ft AGL from Temp-Dew spread
CeilingNone
Temp-13°C (ISA -28)
Dew Point-14°C (92% RH)
AAT-18.5°C
QNH0999 hPa
Density Alt-2,831 ft
Elevation144 ft
Report Wrong Elevation
Raw Report
USRR 170500Z 16003MPS 5000 -SN SCT013 M13/M14 Q0999 R25/35//37
NOSIG RMK QFE744=

Extra information for USRR:More info

Metar Taf Metar & Taf Last 4 Metars F.Rules Stats Wind Profile Meteogram Temp Stats Airport Information Weather charts Add Link Nearby VenuesMetar ALERT Operation Metar Decoded Social comments